sensor_id;sensor_type;location;lat;lon;timestamp;P1;durP1;ratioP1;P2;durP2;ratioP2
39214;SDS011;24932;51.746;14.334;2022-10-20T00:00:40;21.63;;;10.6;;
39214;SDS011;24932;51.746;14.334;2022-10-20T00:04:40;21.57;;;11.07;;
39214;SDS011;24932;51.746;14.334;2022-10-20T00:08:41;25.17;;;12.53;;
39214;SDS011;24932;51.746;14.334;2022-10-20T00:12:41;41.3;;;12.1;;
39214;SDS011;24932;51.746;14.334;2022-10-20T00:16:40;29.57;;;12.93;;
39214;SDS011;24932;51.746;14.334;2022-10-20T00:20:40;33.97;;;12.83;;
39214;SDS011;24932;51.746;14.334;2022-10-20T00:24:41;22.5;;;11.87;;
39214;SDS011;24932;51.746;14.334;2022-10-20T00:28:40;27.0;;;11.7;;
39214;SDS011;24932;51.746;14.334;2022-10-20T00:32:40;33.8;;;13.17;;
39214;SDS011;24932;51.746;14.334;2022-10-20T00:36:40;28.17;;;12.17;;
39214;SDS011;24932;51.746;14.334;2022-10-20T00:40:40;25.57;;;11.1;;
39214;SDS011;24932;51.746;14.334;2022-10-20T00:44:46;34.17;;;11.17;;
39214;SDS011;24932;51.746;14.334;2022-10-20T00:48:40;23.4;;;9.73;;
39214;SDS011;24932;51.746;14.334;2022-10-20T00:52:40;23.37;;;9.2;;
39214;SDS011;24932;51.746;14.334;2022-10-20T00:56:41;19.4;;;10.27;;
39214;SDS011;24932;51.746;14.334;2022-10-20T01:00:41;19.33;;;9.2;;
39214;SDS011;24932;51.746;14.334;2022-10-20T01:04:40;25.07;;;9.33;;
39214;SDS011;24932;51.746;14.334;2022-10-20T01:08:40;25.4;;;9.47;;
39214;SDS011;24932;51.746;14.334;2022-10-20T01:12:44;19.73;;;8.6;;
39214;SDS011;24932;51.746;14.334;2022-10-20T01:16:43;25.4;;;10.17;;
39214;SDS011;24932;51.746;14.334;2022-10-20T01:20:48;26.43;;;11.1;;
39214;SDS011;24932;51.746;14.334;2022-10-20T01:24:44;30.53;;;10.2;;
39214;SDS011;24932;51.746;14.334;2022-10-20T01:28:41;26.93;;;10.4;;
39214;SDS011;24932;51.746;14.334;2022-10-20T01:32:45;27.97;;;10.3;;
39214;SDS011;24932;51.746;14.334;2022-10-20T01:36:42;21.33;;;10.2;;
39214;SDS011;24932;51.746;14.334;2022-10-20T01:40:41;20.4;;;9.93;;
39214;SDS011;24932;51.746;14.334;2022-10-20T01:44:41;24.83;;;10.07;;
39214;SDS011;24932;51.746;14.334;2022-10-20T01:48:40;25.37;;;11.27;;
39214;SDS011;24932;51.746;14.334;2022-10-20T01:52:40;23.7;;;10.27;;
39214;SDS011;24932;51.746;14.334;2022-10-20T01:56:41;25.4;;;10.93;;
39214;SDS011;24932;51.746;14.334;2022-10-20T02:00:41;23.63;;;10.87;;
39214;SDS011;24932;51.746;14.334;2022-10-20T02:04:43;28.33;;;12.37;;
39214;SDS011;24932;51.746;14.334;2022-10-20T02:08:41;22.6;;;10.77;;
39214;SDS011;24932;51.746;14.334;2022-10-20T02:12:40;25.07;;;11.63;;
39214;SDS011;24932;51.746;14.334;2022-10-20T02:16:42;25.03;;;12.2;;
39214;SDS011;24932;51.746;14.334;2022-10-20T02:20:41;34.9;;;13.07;;
39214;SDS011;24932;51.746;14.334;2022-10-20T02:24:40;28.67;;;12.0;;
39214;SDS011;24932;51.746;14.334;2022-10-20T02:28:42;32.33;;;12.37;;
39214;SDS011;24932;51.746;14.334;2022-10-20T02:32:41;27.27;;;11.17;;
39214;SDS011;24932;51.746;14.334;2022-10-20T02:36:41;33.63;;;13.1;;
39214;SDS011;24932;51.746;14.334;2022-10-20T02:40:40;34.07;;;13.77;;
39214;SDS011;24932;51.746;14.334;2022-10-20T02:44:40;37.53;;;15.47;;
39214;SDS011;24932;51.746;14.334;2022-10-20T02:48:41;41.0;;;15.3;;
39214;SDS011;24932;51.746;14.334;2022-10-20T02:52:40;27.93;;;12.5;;
39214;SDS011;24932;51.746;14.334;2022-10-20T02:56:40;28.03;;;13.23;;
39214;SDS011;24932;51.746;14.334;2022-10-20T03:00:40;35.27;;;14.97;;
39214;SDS011;24932;51.746;14.334;2022-10-20T03:04:40;39.93;;;13.47;;
39214;SDS011;24932;51.746;14.334;2022-10-20T03:08:40;33.53;;;13.7;;
39214;SDS011;24932;51.746;14.334;2022-10-20T03:12:40;39.2;;;13.67;;
39214;SDS011;24932;51.746;14.334;2022-10-20T03:16:41;38.27;;;14.3;;
39214;SDS011;24932;51.746;14.334;2022-10-20T03:20:41;28.57;;;13.43;;
39214;SDS011;24932;51.746;14.334;2022-10-20T03:24:40;42.17;;;14.77;;
39214;SDS011;24932;51.746;14.334;2022-10-20T03:28:40;44.5;;;15.97;;
39214;SDS011;24932;51.746;14.334;2022-10-20T03:32:40;38.73;;;14.8;;
39214;SDS011;24932;51.746;14.334;2022-10-20T03:36:41;37.33;;;14.97;;
39214;SDS011;24932;51.746;14.334;2022-10-20T03:40:40;39.47;;;16.13;;
39214;SDS011;24932;51.746;14.334;2022-10-20T03:44:40;41.2;;;15.27;;
39214;SDS011;24932;51.746;14.334;2022-10-20T03:48:40;38.17;;;15.2;;
39214;SDS011;24932;51.746;14.334;2022-10-20T03:52:40;43.07;;;15.0;;
39214;SDS011;24932;51.746;14.334;2022-10-20T03:56:40;36.33;;;14.4;;
39214;SDS011;24932;51.746;14.334;2022-10-20T04:00:40;34.3;;;14.4;;
39214;SDS011;24932;51.746;14.334;2022-10-20T04:04:40;75.8;;;18.1;;
39214;SDS011;24932;51.746;14.334;2022-10-20T04:08:41;37.8;;;15.03;;
39214;SDS011;24932;51.746;14.334;2022-10-20T04:12:40;43.43;;;16.67;;
39214;SDS011;24932;51.746;14.334;2022-10-20T04:16:41;40.03;;;16.77;;
39214;SDS011;24932;51.746;14.334;2022-10-20T04:20:45;50.33;;;16.33;;
39214;SDS011;24932;51.746;14.334;2022-10-20T04:24:41;34.2;;;15.1;;
39214;SDS011;24932;51.746;14.334;2022-10-20T04:28:40;49.1;;;16.3;;
39214;SDS011;24932;51.746;14.334;2022-10-20T04:32:41;38.73;;;14.8;;
39214;SDS011;24932;51.746;14.334;2022-10-20T04:36:40;39.03;;;14.27;;
39214;SDS011;24932;51.746;14.334;2022-10-20T04:40:40;32.83;;;13.63;;
39214;SDS011;24932;51.746;14.334;2022-10-20T04:44:40;43.07;;;15.27;;
39214;SDS011;24932;51.746;14.334;2022-10-20T04:48:41;36.57;;;15.07;;
39214;SDS011;24932;51.746;14.334;2022-10-20T04:52:40;41.7;;;15.2;;
39214;SDS011;24932;51.746;14.334;2022-10-20T04:56:40;34.57;;;14.73;;
39214;SDS011;24932;51.746;14.334;2022-10-20T05:00:40;44.17;;;17.23;;
39214;SDS011;24932;51.746;14.334;2022-10-20T05:04:41;56.7;;;18.9;;
39214;SDS011;24932;51.746;14.334;2022-10-20T05:08:41;53.27;;;19.23;;
39214;SDS011;24932;51.746;14.334;2022-10-20T05:12:41;45.97;;;18.07;;
39214;SDS011;24932;51.746;14.334;2022-10-20T05:16:40;57.2;;;19.2;;
39214;SDS011;24932;51.746;14.334;2022-10-20T05:20:57;53.83;;;18.83;;
39214;SDS011;24932;51.746;14.334;2022-10-20T05:24:40;61.5;;;19.53;;
39214;SDS011;24932;51.746;14.334;2022-10-20T05:28:42;71.27;;;22.0;;
39214;SDS011;24932;51.746;14.334;2022-10-20T05:32:40;55.97;;;19.17;;
39214;SDS011;24932;51.746;14.334;2022-10-20T05:36:41;64.03;;;21.47;;
39214;SDS011;24932;51.746;14.334;2022-10-20T05:40:40;56.03;;;19.83;;
39214;SDS011;24932;51.746;14.334;2022-10-20T05:44:40;55.4;;;20.6;;
39214;SDS011;24932;51.746;14.334;2022-10-20T05:48:43;58.93;;;20.0;;
39214;SDS011;24932;51.746;14.334;2022-10-20T05:52:40;63.1;;;21.03;;
39214;SDS011;24932;51.746;14.334;2022-10-20T05:56:40;66.03;;;22.0;;
39214;SDS011;24932;51.746;14.334;2022-10-20T06:00:40;72.8;;;24.17;;
39214;SDS011;24932;51.746;14.334;2022-10-20T06:04:40;77.5;;;24.6;;
39214;SDS011;24932;51.746;14.334;2022-10-20T06:08:40;75.63;;;25.27;;
39214;SDS011;24932;51.746;14.334;2022-10-20T06:12:41;64.6;;;24.8;;
39214;SDS011;24932;51.746;14.334;2022-10-20T06:16:40;79.4;;;24.17;;
39214;SDS011;24932;51.746;14.334;2022-10-20T06:20:41;90.43;;;30.33;;
39214;SDS011;24932;51.746;14.334;2022-10-20T06:24:41;94.53;;;28.1;;
39214;SDS011;24932;51.746;14.334;2022-10-20T06:28:40;102.27;;;28.8;;
39214;SDS011;24932;51.746;14.334;2022-10-20T06:32:40;91.77;;;26.1;;
39214;SDS011;24932;51.746;14.334;2022-10-20T06:36:39;109.13;;;30.07;;
39214;SDS011;24932;51.746;14.334;2022-10-20T06:40:40;100.6;;;28.47;;
39214;SDS011;24932;51.746;14.334;2022-10-20T06:44:40;98.07;;;30.1;;
39214;SDS011;24932;51.746;14.334;2022-10-20T06:48:40;100.33;;;31.03;;
39214;SDS011;24932;51.746;14.334;2022-10-20T06:52:40;97.4;;;30.17;;
39214;SDS011;24932;51.746;14.334;2022-10-20T06:56:40;106.9;;;30.17;;
39214;SDS011;24932;51.746;14.334;2022-10-20T07:00:40;90.77;;;29.73;;
39214;SDS011;24932;51.746;14.334;2022-10-20T07:04:41;95.17;;;29.4;;
39214;SDS011;24932;51.746;14.334;2022-10-20T07:08:40;83.8;;;31.17;;
39214;SDS011;24932;51.746;14.334;2022-10-20T07:12:40;78.8;;;30.57;;
39214;SDS011;24932;51.746;14.334;2022-10-20T07:16:41;76.63;;;25.4;;
39214;SDS011;24932;51.746;14.334;2022-10-20T07:20:40;76.57;;;29.17;;
39214;SDS011;24932;51.746;14.334;2022-10-20T07:24:40;54.83;;;24.23;;
39214;SDS011;24932;51.746;14.334;2022-10-20T07:28:41;66.6;;;27.37;;
39214;SDS011;24932;51.746;14.334;2022-10-20T07:32:41;68.77;;;28.23;;
39214;SDS011;24932;51.746;14.334;2022-10-20T07:36:41;57.5;;;27.77;;
39214;SDS011;24932;51.746;14.334;2022-10-20T07:40:40;53.57;;;24.07;;
39214;SDS011;24932;51.746;14.334;2022-10-20T07:44:40;79.5;;;26.58;;
39214;SDS011;24932;51.746;14.334;2022-10-20T07:48:40;52.87;;;26.33;;
39214;SDS011;24932;51.746;14.334;2022-10-20T07:52:41;44.8;;;22.63;;
39214;SDS011;24932;51.746;14.334;2022-10-20T07:56:41;38.97;;;22.52;;
39214;SDS011;24932;51.746;14.334;2022-10-20T08:00:41;35.97;;;17.65;;
39214;SDS011;24932;51.746;14.334;2022-10-20T08:04:40;35.0;;;19.77;;
39214;SDS011;24932;51.746;14.334;2022-10-20T08:08:40;32.0;;;18.7;;
39214;SDS011;24932;51.746;14.334;2022-10-20T08:12:40;30.42;;;17.85;;
39214;SDS011;24932;51.746;14.334;2022-10-20T08:16:43;23.73;;;13.98;;
39214;SDS011;24932;51.746;14.334;2022-10-20T08:20:41;22.52;;;14.23;;
39214;SDS011;24932;51.746;14.334;2022-10-20T08:24:40;20.2;;;13.43;;
39214;SDS011;24932;51.746;14.334;2022-10-20T08:28:40;16.45;;;11.57;;
39214;SDS011;24932;51.746;14.334;2022-10-20T08:32:40;18.02;;;11.93;;
39214;SDS011;24932;51.746;14.334;2022-10-20T08:36:40;16.5;;;11.2;;
39214;SDS011;24932;51.746;14.334;2022-10-20T08:40:40;17.77;;;10.35;;
39214;SDS011;24932;51.746;14.334;2022-10-20T08:44:40;14.13;;;9.38;;
39214;SDS011;24932;51.746;14.334;2022-10-20T08:48:40;12.95;;;8.98;;
39214;SDS011;24932;51.746;14.334;2022-10-20T08:52:40;11.05;;;7.28;;
39214;SDS011;24932;51.746;14.334;2022-10-20T08:56:39;8.65;;;6.45;;
39214;SDS011;24932;51.746;14.334;2022-10-20T09:00:41;8.13;;;6.85;;
39214;SDS011;24932;51.746;14.334;2022-10-20T09:04:41;13.32;;;6.15;;
39214;SDS011;24932;51.746;14.334;2022-10-20T09:08:41;8.65;;;5.0;;
39214;SDS011;24932;51.746;14.334;2022-10-20T09:12:41;9.05;;;5.97;;
39214;SDS011;24932;51.746;14.334;2022-10-20T09:16:42;11.05;;;4.65;;
39214;SDS011;24932;51.746;14.334;2022-10-20T09:20:42;6.32;;;4.35;;
39214;SDS011;24932;51.746;14.334;2022-10-20T09:24:40;7.93;;;5.15;;
39214;SDS011;24932;51.746;14.334;2022-10-20T09:29:12;8.05;;;4.62;;
39214;SDS011;24932;51.746;14.334;2022-10-20T09:32:47;5.5;;;3.8;;
39214;SDS011;24932;51.746;14.334;2022-10-20T09:36:40;6.95;;;3.12;;
39214;SDS011;24932;51.746;14.334;2022-10-20T09:40:41;10.43;;;4.03;;
39214;SDS011;24932;51.746;14.334;2022-10-20T09:44:44;10.15;;;4.25;;
39214;SDS011;24932;51.746;14.334;2022-10-20T09:48:41;7.68;;;3.8;;
39214;SDS011;24932;51.746;14.334;2022-10-20T09:52:40;5.1;;;3.8;;
39214;SDS011;24932;51.746;14.334;2022-10-20T09:56:40;4.5;;;3.72;;
39214;SDS011;24932;51.746;14.334;2022-10-20T10:00:42;7.03;;;3.75;;
39214;SDS011;24932;51.746;14.334;2022-10-20T10:04:41;6.7;;;3.97;;
39214;SDS011;24932;51.746;14.334;2022-10-20T10:08:42;5.15;;;2.72;;
39214;SDS011;24932;51.746;14.334;2022-10-20T10:12:40;5.4;;;3.0;;
39214;SDS011;24932;51.746;14.334;2022-10-20T10:16:41;5.3;;;3.1;;
39214;SDS011;24932;51.746;14.334;2022-10-20T10:20:40;17.42;;;6.12;;
39214;SDS011;24932;51.746;14.334;2022-10-20T10:24:41;4.47;;;2.78;;
39214;SDS011;24932;51.746;14.334;2022-10-20T10:28:40;3.87;;;2.85;;
39214;SDS011;24932;51.746;14.334;2022-10-20T10:32:42;6.05;;;2.55;;
39214;SDS011;24932;51.746;14.334;2022-10-20T10:36:39;2.95;;;2.1;;
39214;SDS011;24932;51.746;14.334;2022-10-20T10:40:42;2.15;;;1.95;;
39214;SDS011;24932;51.746;14.334;2022-10-20T10:44:43;2.25;;;1.9;;
39214;SDS011;24932;51.746;14.334;2022-10-20T10:48:45;7.15;;;2.17;;
39214;SDS011;24932;51.746;14.334;2022-10-20T10:52:41;4.25;;;2.08;;
39214;SDS011;24932;51.746;14.334;2022-10-20T10:56:41;3.78;;;2.28;;
39214;SDS011;24932;51.746;14.334;2022-10-20T11:00:42;5.65;;;2.15;;
39214;SDS011;24932;51.746;14.334;2022-10-20T11:04:45;4.2;;;2.35;;
39214;SDS011;24932;51.746;14.334;2022-10-20T11:08:45;6.28;;;2.42;;
39214;SDS011;24932;51.746;14.334;2022-10-20T11:12:44;4.95;;;3.25;;
39214;SDS011;24932;51.746;14.334;2022-10-20T11:16:42;6.87;;;2.75;;
39214;SDS011;24932;51.746;14.334;2022-10-20T11:20:42;6.1;;;2.78;;
39214;SDS011;24932;51.746;14.334;2022-10-20T11:24:43;4.15;;;2.3;;
39214;SDS011;24932;51.746;14.334;2022-10-20T11:28:41;5.05;;;2.7;;
39214;SDS011;24932;51.746;14.334;2022-10-20T11:32:41;5.53;;;2.78;;
39214;SDS011;24932;51.746;14.334;2022-10-20T11:36:42;4.4;;;2.35;;
39214;SDS011;24932;51.746;14.334;2022-10-20T11:40:42;3.45;;;2.3;;
39214;SDS011;24932;51.746;14.334;2022-10-20T11:44:40;3.65;;;2.7;;
39214;SDS011;24932;51.746;14.334;2022-10-20T11:48:41;4.9;;;3.35;;
39214;SDS011;24932;51.746;14.334;2022-10-20T11:52:47;7.68;;;3.03;;
39214;SDS011;24932;51.746;14.334;2022-10-20T11:56:43;4.55;;;2.2;;
39214;SDS011;24932;51.746;14.334;2022-10-20T12:00:45;4.75;;;1.87;;
39214;SDS011;24932;51.746;14.334;2022-10-20T12:04:49;5.87;;;2.45;;
39214;SDS011;24932;51.746;14.334;2022-10-20T12:08:44;3.22;;;2.3;;
39214;SDS011;24932;51.746;14.334;2022-10-20T12:12:42;9.13;;;2.37;;
39214;SDS011;24932;51.746;14.334;2022-10-20T12:17:14;5.35;;;2.47;;
39214;SDS011;24932;51.746;14.334;2022-10-20T12:20:48;4.57;;;2.25;;
39214;SDS011;24932;51.746;14.334;2022-10-20T12:24:40;4.82;;;2.4;;
39214;SDS011;24932;51.746;14.334;2022-10-20T12:28:41;7.43;;;2.37;;
39214;SDS011;24932;51.746;14.334;2022-10-20T12:32:50;3.8;;;2.22;;
39214;SDS011;24932;51.746;14.334;2022-10-20T12:36:40;3.4;;;2.12;;
39214;SDS011;24932;51.746;14.334;2022-10-20T12:40:42;3.22;;;2.55;;
39214;SDS011;24932;51.746;14.334;2022-10-20T12:44:41;2.67;;;2.25;;
39214;SDS011;24932;51.746;14.334;2022-10-20T12:48:42;6.2;;;2.5;;
39214;SDS011;24932;51.746;14.334;2022-10-20T12:52:40;3.08;;;2.22;;
39214;SDS011;24932;51.746;14.334;2022-10-20T12:56:39;7.2;;;2.2;;
39214;SDS011;24932;51.746;14.334;2022-10-20T13:01:13;3.45;;;2.05;;
39214;SDS011;24932;51.746;14.334;2022-10-20T13:04:52;5.18;;;1.67;;
39214;SDS011;24932;51.746;14.334;2022-10-20T13:08:41;5.53;;;1.95;;
39214;SDS011;24932;51.746;14.334;2022-10-20T13:12:41;7.35;;;2.05;;
39214;SDS011;24932;51.746;14.334;2022-10-20T13:16:42;3.1;;;2.17;;
39214;SDS011;24932;51.746;14.334;2022-10-20T13:20:42;8.15;;;2.22;;
39214;SDS011;24932;51.746;14.334;2022-10-20T13:24:45;4.45;;;2.1;;
39214;SDS011;24932;51.746;14.334;2022-10-20T13:28:41;4.05;;;2.37;;
39214;SDS011;24932;51.746;14.334;2022-10-20T13:33:04;5.93;;;3.85;;
39214;SDS011;24932;51.746;14.334;2022-10-20T13:36:43;7.28;;;3.9;;
39214;SDS011;24932;51.746;14.334;2022-10-20T13:40:41;4.22;;;3.08;;
39214;SDS011;24932;51.746;14.334;2022-10-20T13:44:42;4.43;;;3.9;;
39214;SDS011;24932;51.746;14.334;2022-10-20T13:48:44;5.8;;;3.08;;
39214;SDS011;24932;51.746;14.334;2022-10-20T13:52:41;4.82;;;4.15;;
39214;SDS011;24932;51.746;14.334;2022-10-20T13:56:41;6.37;;;4.28;;
39214;SDS011;24932;51.746;14.334;2022-10-20T14:00:40;5.25;;;3.55;;
39214;SDS011;24932;51.746;14.334;2022-10-20T14:04:40;7.87;;;4.18;;
39214;SDS011;24932;51.746;14.334;2022-10-20T14:08:41;7.75;;;4.28;;
39214;SDS011;24932;51.746;14.334;2022-10-20T14:12:40;7.37;;;4.22;;
39214;SDS011;24932;51.746;14.334;2022-10-20T14:16:42;8.25;;;4.18;;
39214;SDS011;24932;51.746;14.334;2022-10-20T14:20:40;7.2;;;4.18;;
39214;SDS011;24932;51.746;14.334;2022-10-20T14:24:41;6.1;;;3.72;;
39214;SDS011;24932;51.746;14.334;2022-10-20T14:28:41;9.35;;;4.37;;
39214;SDS011;24932;51.746;14.334;2022-10-20T14:32:41;4.55;;;3.33;;
39214;SDS011;24932;51.746;14.334;2022-10-20T14:36:45;6.03;;;3.5;;
39214;SDS011;24932;51.746;14.334;2022-10-20T14:40:41;9.15;;;3.7;;
39214;SDS011;24932;51.746;14.334;2022-10-20T14:44:41;4.93;;;3.35;;
39214;SDS011;24932;51.746;14.334;2022-10-20T14:48:41;5.47;;;3.97;;
39214;SDS011;24932;51.746;14.334;2022-10-20T14:52:40;4.43;;;3.62;;
39214;SDS011;24932;51.746;14.334;2022-10-20T14:56:41;4.45;;;2.97;;
39214;SDS011;24932;51.746;14.334;2022-10-20T15:00:41;5.07;;;3.55;;
39214;SDS011;24932;51.746;14.334;2022-10-20T15:04:40;11.25;;;3.33;;
39214;SDS011;24932;51.746;14.334;2022-10-20T15:08:41;7.5;;;3.83;;
39214;SDS011;24932;51.746;14.334;2022-10-20T15:12:41;5.4;;;3.2;;
39214;SDS011;24932;51.746;14.334;2022-10-20T15:16:41;8.48;;;3.55;;
39214;SDS011;24932;51.746;14.334;2022-10-20T15:20:41;7.4;;;3.95;;
39214;SDS011;24932;51.746;14.334;2022-10-20T15:24:40;4.55;;;3.92;;
39214;SDS011;24932;51.746;14.334;2022-10-20T15:28:42;18.55;;;4.72;;
39214;SDS011;24932;51.746;14.334;2022-10-20T15:32:40;6.5;;;4.72;;
39214;SDS011;24932;51.746;14.334;2022-10-20T15:36:42;9.9;;;5.03;;
39214;SDS011;24932;51.746;14.334;2022-10-20T15:40:41;6.55;;;4.47;;
39214;SDS011;24932;51.746;14.334;2022-10-20T15:44:40;8.52;;;5.7;;
39214;SDS011;24932;51.746;14.334;2022-10-20T15:48:40;10.0;;;6.93;;
39214;SDS011;24932;51.746;14.334;2022-10-20T15:52:40;13.35;;;8.9;;
39214;SDS011;24932;51.746;14.334;2022-10-20T15:56:40;17.4;;;9.43;;
39214;SDS011;24932;51.746;14.334;2022-10-20T16:00:40;9.75;;;7.6;;
39214;SDS011;24932;51.746;14.334;2022-10-20T16:04:40;14.25;;;8.68;;
39214;SDS011;24932;51.746;14.334;2022-10-20T16:08:41;14.02;;;8.43;;
39214;SDS011;24932;51.746;14.334;2022-10-20T16:12:40;17.92;;;8.5;;
39214;SDS011;24932;51.746;14.334;2022-10-20T16:16:41;11.8;;;8.05;;
39214;SDS011;24932;51.746;14.334;2022-10-20T16:20:40;11.32;;;7.45;;
39214;SDS011;24932;51.746;14.334;2022-10-20T16:24:40;14.35;;;7.4;;
39214;SDS011;24932;51.746;14.334;2022-10-20T16:28:41;12.02;;;7.87;;
39214;SDS011;24932;51.746;14.334;2022-10-20T16:32:41;13.9;;;7.12;;
39214;SDS011;24932;51.746;14.334;2022-10-20T16:36:40;12.1;;;7.53;;
39214;SDS011;24932;51.746;14.334;2022-10-20T16:40:40;10.63;;;6.62;;
39214;SDS011;24932;51.746;14.334;2022-10-20T16:44:41;10.77;;;6.97;;
39214;SDS011;24932;51.746;14.334;2022-10-20T16:48:44;14.93;;;7.28;;
39214;SDS011;24932;51.746;14.334;2022-10-20T16:52:40;16.77;;;6.65;;
39214;SDS011;24932;51.746;14.334;2022-10-20T16:56:40;9.38;;;6.97;;
39214;SDS011;24932;51.746;14.334;2022-10-20T17:00:40;10.23;;;6.85;;
39214;SDS011;24932;51.746;14.334;2022-10-20T17:04:40;18.48;;;8.07;;
39214;SDS011;24932;51.746;14.334;2022-10-20T17:08:40;10.73;;;7.68;;
39214;SDS011;24932;51.746;14.334;2022-10-20T17:12:40;8.93;;;6.68;;
39214;SDS011;24932;51.746;14.334;2022-10-20T17:16:40;10.05;;;6.75;;
39214;SDS011;24932;51.746;14.334;2022-10-20T17:20:40;13.27;;;7.2;;
39214;SDS011;24932;51.746;14.334;2022-10-20T17:24:40;9.18;;;6.87;;
39214;SDS011;24932;51.746;14.334;2022-10-20T17:28:41;10.8;;;7.37;;
39214;SDS011;24932;51.746;14.334;2022-10-20T17:32:40;13.07;;;6.2;;
39214;SDS011;24932;51.746;14.334;2022-10-20T17:36:40;10.9;;;6.3;;
39214;SDS011;24932;51.746;14.334;2022-10-20T17:40:40;9.15;;;7.07;;
39214;SDS011;24932;51.746;14.334;2022-10-20T17:44:41;12.85;;;6.5;;
39214;SDS011;24932;51.746;14.334;2022-10-20T17:48:40;10.75;;;6.3;;
39214;SDS011;24932;51.746;14.334;2022-10-20T17:52:40;9.15;;;5.95;;
39214;SDS011;24932;51.746;14.334;2022-10-20T17:56:40;10.77;;;6.5;;
39214;SDS011;24932;51.746;14.334;2022-10-20T18:01:05;12.45;;;6.03;;
39214;SDS011;24932;51.746;14.334;2022-10-20T18:04:40;10.77;;;6.6;;
39214;SDS011;24932;51.746;14.334;2022-10-20T18:08:40;11.98;;;6.43;;
39214;SDS011;24932;51.746;14.334;2022-10-20T18:12:40;8.98;;;6.57;;
39214;SDS011;24932;51.746;14.334;2022-10-20T18:16:40;9.38;;;6.03;;
39214;SDS011;24932;51.746;14.334;2022-10-20T18:20:40;12.55;;;5.95;;
39214;SDS011;24932;51.746;14.334;2022-10-20T18:24:40;15.07;;;6.32;;
39214;SDS011;24932;51.746;14.334;2022-10-20T18:28:44;14.98;;;6.05;;
39214;SDS011;24932;51.746;14.334;2022-10-20T18:32:40;19.02;;;6.93;;
39214;SDS011;24932;51.746;14.334;2022-10-20T18:36:46;12.48;;;5.78;;
39214;SDS011;24932;51.746;14.334;2022-10-20T18:40:40;14.73;;;7.07;;
39214;SDS011;24932;51.746;14.334;2022-10-20T18:44:40;9.4;;;5.43;;
39214;SDS011;24932;51.746;14.334;2022-10-20T18:48:41;12.1;;;6.4;;
39214;SDS011;24932;51.746;14.334;2022-10-20T18:52:40;9.82;;;5.82;;
39214;SDS011;24932;51.746;14.334;2022-10-20T18:56:40;9.13;;;5.45;;
39214;SDS011;24932;51.746;14.334;2022-10-20T19:00:40;10.48;;;5.87;;
39214;SDS011;24932;51.746;14.334;2022-10-20T19:04:40;9.7;;;5.53;;
39214;SDS011;24932;51.746;14.334;2022-10-20T19:08:40;10.65;;;5.6;;
39214;SDS011;24932;51.746;14.334;2022-10-20T19:12:40;14.32;;;5.8;;
39214;SDS011;24932;51.746;14.334;2022-10-20T19:16:40;11.73;;;6.25;;
39214;SDS011;24932;51.746;14.334;2022-10-20T19:20:41;13.93;;;5.7;;
39214;SDS011;24932;51.746;14.334;2022-10-20T19:24:40;9.75;;;5.3;;
39214;SDS011;24932;51.746;14.334;2022-10-20T19:28:41;17.92;;;5.95;;
39214;SDS011;24932;51.746;14.334;2022-10-20T19:32:44;19.2;;;7.05;;
39214;SDS011;24932;51.746;14.334;2022-10-20T19:36:41;8.38;;;5.82;;
39214;SDS011;24932;51.746;14.334;2022-10-20T19:40:40;11.32;;;7.0;;
39214;SDS011;24932;51.746;14.334;2022-10-20T19:44:40;7.95;;;4.93;;
39214;SDS011;24932;51.746;14.334;2022-10-20T19:48:41;10.8;;;6.03;;
39214;SDS011;24932;51.746;14.334;2022-10-20T19:52:40;12.67;;;6.7;;
39214;SDS011;24932;51.746;14.334;2022-10-20T19:56:40;15.32;;;6.28;;
39214;SDS011;24932;51.746;14.334;2022-10-20T20:00:41;13.2;;;6.25;;
39214;SDS011;24932;51.746;14.334;2022-10-20T20:04:40;12.95;;;6.05;;
39214;SDS011;24932;51.746;14.334;2022-10-20T20:08:41;17.4;;;6.83;;
39214;SDS011;24932;51.746;14.334;2022-10-20T20:12:40;11.63;;;6.57;;
39214;SDS011;24932;51.746;14.334;2022-10-20T20:16:41;13.63;;;6.63;;
39214;SDS011;24932;51.746;14.334;2022-10-20T20:20:41;14.33;;;6.87;;
39214;SDS011;24932;51.746;14.334;2022-10-20T20:24:41;15.9;;;8.5;;
39214;SDS011;24932;51.746;14.334;2022-10-20T20:28:40;13.52;;;7.57;;
39214;SDS011;24932;51.746;14.334;2022-10-20T20:32:46;14.18;;;7.18;;
39214;SDS011;24932;51.746;14.334;2022-10-20T20:36:40;19.2;;;8.1;;
39214;SDS011;24932;51.746;14.334;2022-10-20T20:40:40;13.3;;;6.67;;
39214;SDS011;24932;51.746;14.334;2022-10-20T20:44:40;15.5;;;7.9;;
39214;SDS011;24932;51.746;14.334;2022-10-20T20:48:40;13.13;;;7.27;;
39214;SDS011;24932;51.746;14.334;2022-10-20T20:52:40;18.53;;;6.9;;
39214;SDS011;24932;51.746;14.334;2022-10-20T20:56:41;11.67;;;7.03;;
39214;SDS011;24932;51.746;14.334;2022-10-20T21:00:41;17.13;;;6.93;;
39214;SDS011;24932;51.746;14.334;2022-10-20T21:04:40;13.7;;;7.57;;
39214;SDS011;24932;51.746;14.334;2022-10-20T21:08:41;14.13;;;7.73;;
39214;SDS011;24932;51.746;14.334;2022-10-20T21:12:41;18.8;;;8.17;;
39214;SDS011;24932;51.746;14.334;2022-10-20T21:16:40;16.5;;;8.33;;
39214;SDS011;24932;51.746;14.334;2022-10-20T21:20:40;13.13;;;7.73;;
39214;SDS011;24932;51.746;14.334;2022-10-20T21:24:40;20.43;;;8.43;;
39214;SDS011;24932;51.746;14.334;2022-10-20T21:28:40;17.53;;;8.47;;
39214;SDS011;24932;51.746;14.334;2022-10-20T21:32:41;16.17;;;7.97;;
39214;SDS011;24932;51.746;14.334;2022-10-20T21:36:40;15.1;;;7.93;;
39214;SDS011;24932;51.746;14.334;2022-10-20T21:40:40;13.13;;;6.9;;
39214;SDS011;24932;51.746;14.334;2022-10-20T21:44:40;18.77;;;8.0;;
39214;SDS011;24932;51.746;14.334;2022-10-20T21:48:41;12.23;;;7.7;;
39214;SDS011;24932;51.746;14.334;2022-10-20T21:52:41;17.33;;;7.5;;
39214;SDS011;24932;51.746;14.334;2022-10-20T21:56:41;15.0;;;7.9;;
39214;SDS011;24932;51.746;14.334;2022-10-20T22:00:40;10.0;;;6.8;;
39214;SDS011;24932;51.746;14.334;2022-10-20T22:04:40;12.43;;;7.07;;
39214;SDS011;24932;51.746;14.334;2022-10-20T22:08:41;17.0;;;8.23;;
39214;SDS011;24932;51.746;14.334;2022-10-20T22:12:40;16.07;;;8.0;;
39214;SDS011;24932;51.746;14.334;2022-10-20T22:16:41;17.73;;;8.6;;
39214;SDS011;24932;51.746;14.334;2022-10-20T22:20:40;13.0;;;6.7;;
39214;SDS011;24932;51.746;14.334;2022-10-20T22:24:40;13.8;;;7.57;;
39214;SDS011;24932;51.746;14.334;2022-10-20T22:28:40;15.13;;;7.97;;
39214;SDS011;24932;51.746;14.334;2022-10-20T22:32:41;17.6;;;7.63;;
39214;SDS011;24932;51.746;14.334;2022-10-20T22:36:40;17.4;;;7.77;;
39214;SDS011;24932;51.746;14.334;2022-10-20T22:40:40;14.5;;;7.0;;
39214;SDS011;24932;51.746;14.334;2022-10-20T22:44:40;15.23;;;7.77;;
39214;SDS011;24932;51.746;14.334;2022-10-20T22:48:40;14.13;;;7.43;;
39214;SDS011;24932;51.746;14.334;2022-10-20T22:52:41;14.67;;;7.53;;
39214;SDS011;24932;51.746;14.334;2022-10-20T22:56:41;19.27;;;7.77;;
39214;SDS011;24932;51.746;14.334;2022-10-20T23:00:41;11.97;;;7.03;;
39214;SDS011;24932;51.746;14.334;2022-10-20T23:04:40;13.3;;;7.37;;
39214;SDS011;24932;51.746;14.334;2022-10-20T23:08:41;13.37;;;7.6;;
39214;SDS011;24932;51.746;14.334;2022-10-20T23:12:41;12.9;;;7.37;;
39214;SDS011;24932;51.746;14.334;2022-10-20T23:16:40;14.93;;;6.7;;
39214;SDS011;24932;51.746;14.334;2022-10-20T23:20:40;11.37;;;6.4;;
39214;SDS011;24932;51.746;14.334;2022-10-20T23:24:40;15.6;;;6.83;;
39214;SDS011;24932;51.746;14.334;2022-10-20T23:28:40;12.03;;;6.47;;
39214;SDS011;24932;51.746;14.334;2022-10-20T23:32:40;17.33;;;6.57;;